Time;durP1;ratioP1;P1;durP2;ratioP2;P2;SDS_P1;SDS_P2;PMS_P1;PMS_P2;Temp;Humidity;BMP_temperature;BMP_pressure;BME280_temperature;BME280_humidity;BME280_pressure;Samples;Min_cycle;Max_cycle;Signal;HPM_P1;HPM_P2
2022/06/28 00:01:50;;;;;;;0.00;0.00;;;;;;;14.97;68.98;100470.84;7365428;19;20013;-65
2022/06/28 00:04:16;;;;;;;0.00;0.00;;;;;;;15.01;70.76;100469.78;7366274;19;20014;-67
2022/06/28 00:06:42;;;;;;;0.05;0.05;;;;;;;15.04;71.75;100463.53;7359683;19;20029;-65
2022/06/28 00:09:07;;;;;;;0.00;0.00;;;;;;;15.04;70.02;100453.00;7366059;19;20011;-65
2022/06/28 00:11:33;;;;;;;0.10;0.10;;;;;;;15.08;70.40;100449.31;7364882;19;20015;-64
2022/06/28 00:13:58;;;;;;;0.00;0.00;;;;;;;15.10;69.96;100447.47;7365679;19;20015;-68
2022/06/28 00:16:24;;;;;;;0.10;0.10;;;;;;;15.07;69.90;100441.50;7364349;19;20098;-66
2022/06/28 00:18:51;;;;;;;0.10;0.10;;;;;;;15.13;70.30;100452.59;7363937;19;20013;-68
2022/06/28 00:21:17;;;;;;;0.00;0.00;;;;;;;15.16;70.22;100444.59;7364655;19;20047;-68
2022/06/28 00:23:42;;;;;;;0.10;0.10;;;;;;;15.18;70.21;100453.25;7365446;19;21440;-67
2022/06/28 00:26:09;;;;;;;0.10;0.10;;;;;;;15.23;69.68;100455.66;7365369;19;20021;-65
2022/06/28 00:28:34;;;;;;;0.10;0.10;;;;;;;15.24;68.85;100445.06;7362588;19;20393;-65
2022/06/28 00:31:01;;;;;;;0.00;0.00;;;;;;;15.23;69.64;100430.22;7364132;19;20112;-68
2022/06/28 00:33:26;;;;;;;0.00;0.00;;;;;;;15.29;69.57;100448.34;7364717;19;20114;-68
2022/06/28 00:35:52;;;;;;;0.10;0.10;;;;;;;15.33;70.88;100428.00;7364803;19;20034;-68
2022/06/28 00:38:17;;;;;;;0.00;0.00;;;;;;;15.39;69.77;100434.75;7363439;19;20022;-67
2022/06/28 00:40:51;;;;;;;0.00;0.00;;;;;;;15.44;70.31;100420.47;7364995;19;20762;-67
2022/06/28 00:43:18;;;;;;;0.00;0.00;;;;;;;15.46;69.26;100418.63;7364004;19;20081;-67
2022/06/28 00:45:45;;;;;;;0.08;0.08;;;;;;;15.47;70.12;100420.31;7363906;19;20006;-65
2022/06/28 00:48:13;;;;;;;0.10;0.10;;;;;;;15.52;70.10;100418.31;7365441;19;20025;-67
2022/06/28 00:50:38;;;;;;;0.00;0.00;;;;;;;15.52;70.58;100422.75;7362976;19;20015;-66
2022/06/28 00:53:08;;;;;;;0.10;0.10;;;;;;;15.55;69.98;100414.69;7362345;19;20017;-67
2022/06/28 00:55:34;;;;;;;0.00;0.00;;;;;;;15.61;68.46;100422.28;7360669;19;20006;-66
2022/06/28 00:58:00;;;;;;;0.05;0.05;;;;;;;15.63;69.45;100417.84;7364067;19;20018;-68
2022/06/28 01:00:27;;;;;;;0.10;0.10;;;;;;;15.66;70.23;100414.19;7362214;19;20098;-67
2022/06/28 01:02:52;;;;;;;0.03;0.03;;;;;;;15.65;69.40;100408.09;7364627;19;20054;-67
2022/06/28 01:05:18;;;;;;;0.00;0.00;;;;;;;15.66;69.77;100403.66;7363500;19;20027;-67
2022/06/28 01:07:44;;;;;;;0.00;0.00;;;;;;;15.47;70.74;100382.63;7362135;19;20015;-67
2022/06/28 01:10:10;;;;;;;0.00;0.00;;;;;;;15.63;70.26;100399.41;7362351;19;20014;-66
2022/06/28 01:12:35;;;;;;;0.00;0.00;;;;;;;15.59;70.66;100403.09;7364927;19;20462;-67
2022/06/28 01:15:00;;;;;;;0.00;0.00;;;;;;;15.55;71.44;100401.53;7363934;19;20035;-67
2022/06/28 01:17:26;;;;;;;0.00;0.00;;;;;;;15.51;70.42;100405.22;7363791;19;20026;-67
2022/06/28 01:19:52;;;;;;;0.00;0.00;;;;;;;15.45;70.67;100405.53;7363466;19;20449;-67
2022/06/28 01:22:18;;;;;;;0.00;0.00;;;;;;;15.36;70.97;100390.16;7361698;19;20513;-67
2022/06/28 01:24:44;;;;;;;0.00;0.00;;;;;;;15.30;72.18;100386.03;7364638;19;20023;-67
2022/06/28 01:27:11;;;;;;;0.10;0.10;;;;;;;15.25;72.42;100386.25;7361143;19;20010;-68
2022/06/28 01:29:36;;;;;;;0.00;0.00;;;;;;;15.21;72.12;100387.34;7362544;19;20024;-68
2022/06/28 01:32:02;;;;;;;0.03;0.03;;;;;;;15.10;69.68;100371.19;7363241;19;20129;-66
2022/06/28 01:34:28;;;;;;;0.00;0.00;;;;;;;15.18;72.18;100374.34;7362161;19;20691;-65
2022/06/28 01:36:53;;;;;;;0.05;0.05;;;;;;;15.17;72.35;100375.28;7362937;19;20102;-65
2022/06/28 01:39:19;;;;;;;0.00;0.00;;;;;;;15.16;72.59;100384.09;7362524;19;20011;-66
2022/06/28 01:41:44;;;;;;;0.00;0.00;;;;;;;15.17;72.24;100379.69;7361288;19;20012;-67
2022/06/28 01:44:10;;;;;;;0.00;0.00;;;;;;;15.17;72.00;100359.47;7361676;19;20030;-66
2022/06/28 01:46:38;;;;;;;0.10;0.10;;;;;;;15.18;71.49;100361.19;7367216;19;20006;-68
2022/06/28 01:49:05;;;;;;;0.10;0.10;;;;;;;15.19;72.48;100357.63;7361473;19;20014;-66
2022/06/28 01:51:30;;;;;;;0.00;0.00;;;;;;;15.20;71.85;100359.31;7360899;19;20779;-66
2022/06/28 01:53:56;;;;;;;0.00;0.00;;;;;;;15.23;72.31;100360.97;7363894;19;20006;-67
2022/06/28 01:56:21;;;;;;;0.05;0.05;;;;;;;15.25;72.25;100359.97;7326882;19;20033;-67
2022/06/28 01:58:47;;;;;;;0.00;0.00;;;;;;;15.18;70.96;100340.13;7349777;19;20118;-68
2022/06/28 02:01:13;;;;;;;0.00;0.00;;;;;;;15.21;71.08;100334.75;7361551;19;20010;-67
2022/06/28 02:03:40;;;;;;;0.00;0.00;;;;;;;15.34;72.20;100349.94;7360024;19;20006;-65
2022/06/28 02:06:06;;;;;;;0.00;0.00;;;;;;;15.36;71.93;100346.31;7361505;19;20033;-66
2022/06/28 02:08:34;;;;;;;0.00;0.00;;;;;;;15.28;71.70;100330.03;7358553;19;20010;-68
2022/06/28 02:11:01;;;;;;;0.00;0.00;;;;;;;15.40;72.10;100344.38;7356827;19;20049;-68
2022/06/28 02:13:26;;;;;;;0.00;0.00;;;;;;;15.43;71.34;100333.72;7359442;19;20469;-68
2022/06/28 02:15:52;;;;;;;0.10;0.10;;;;;;;15.46;71.44;100342.31;7360194;19;20020;-65
2022/06/28 02:18:17;;;;;;;0.10;0.10;;;;;;;15.50;71.20;100343.00;7356762;19;20031;-67
2022/06/28 02:20:43;;;;;;;0.00;0.00;;;;;;;15.52;71.19;100333.25;7360146;19;20501;-66
2022/06/28 02:23:08;;;;;;;0.00;0.00;;;;;;;15.55;70.90;100327.84;7353613;19;21224;-67
2022/06/28 02:25:34;;;;;;;0.10;0.10;;;;;;;15.57;71.28;100326.84;7361023;19;20018;-67
2022/06/28 02:27:59;;;;;;;0.10;0.10;;;;;;;15.62;69.97;100324.00;7356314;19;20018;-66
2022/06/28 02:30:24;;;;;;;0.10;0.10;;;;;;;15.64;70.47;100321.31;7360591;19;20015;-65
2022/06/28 02:32:50;;;;;;;0.10;0.10;;;;;;;15.65;71.19;100321.22;7359222;19;20021;-66
2022/06/28 02:40:44;;;;;;;0.00;0.00;;;;;;;15.70;70.61;100318.34;7361153;19;20017;-65
2022/06/28 02:43:09;;;;;;;0.10;0.10;;;;;;;15.71;70.35;100307.78;7358212;19;20014;-66
2022/06/28 02:45:35;;;;;;;0.10;0.10;;;;;;;15.66;70.70;100304.53;7358002;19;20015;-67
2022/06/28 02:48:02;;;;;;;0.08;0.08;;;;;;;15.67;71.26;100310.63;7361198;19;20497;-67
2022/06/28 02:50:27;;;;;;;0.00;0.00;;;;;;;15.66;70.89;100296.63;7354409;19;20027;-67
2022/06/28 02:52:54;;;;;;;0.10;0.10;;;;;;;15.63;71.60;100291.50;7360603;19;20014;-65
2022/06/28 02:55:19;;;;;;;0.00;0.00;;;;;;;15.63;71.80;100283.59;7364075;19;20585;-65
2022/06/28 02:57:45;;;;;;;0.10;0.10;;;;;;;15.64;71.28;100295.84;7357569;19;20022;-67
2022/06/28 03:00:14;;;;;;;0.00;0.00;;;;;;;15.66;70.81;100278.19;7359642;19;20473;-64
2022/06/28 03:02:42;;;;;;;0.00;0.00;;;;;;;15.67;70.76;100290.44;7361868;19;20023;-67
2022/06/28 03:05:08;;;;;;;;;;;;;;;15.75;68.86;100280.34;7352662;19;20010;-66
2022/06/28 03:07:33;;;;;;;0.00;0.00;;;;;;;15.75;69.26;100272.44;7362029;19;20018;-67
2022/06/28 03:09:59;;;;;;;0.10;0.10;;;;;;;15.78;70.17;100267.03;7361767;19;22140;-66
2022/06/28 03:12:25;;;;;;;0.00;0.00;;;;;;;15.80;69.55;100265.16;7368929;19;20010;-67
2022/06/28 03:14:51;;;;;;;0.10;0.10;;;;;;;15.81;69.52;100261.63;7364097;19;20647;-68
2022/06/28 03:17:17;;;;;;;0.05;0.05;;;;;;;15.86;69.72;100274.53;7369960;19;20573;-67
2022/06/28 03:19:42;;;;;;;0.10;0.10;;;;;;;15.87;69.34;100249.06;7368726;19;20030;-65
2022/06/28 03:22:08;;;;;;;0.10;0.10;;;;;;;15.90;69.04;100254.16;7356942;19;20023;-66
2022/06/28 03:24:33;;;;;;;0.10;0.10;;;;;;;15.80;69.21;100230.09;7369676;19;20541;-66
2022/06/28 03:26:59;;;;;;;0.10;0.10;;;;;;;15.92;69.36;100247.06;7369834;19;20498;-67
2022/06/28 03:29:24;;;;;;;0.10;0.10;;;;;;;15.94;69.71;100251.28;7369637;19;20014;-66
2022/06/28 03:31:50;;;;;;;0.10;0.10;;;;;;;15.93;69.08;100243.47;7366489;19;20014;-68
2022/06/28 03:34:16;;;;;;;0.00;0.00;;;;;;;15.85;69.06;100224.59;7371082;19;20178;-67
2022/06/28 03:36:42;;;;;;;0.00;0.00;;;;;;;15.98;68.82;100233.56;7367288;19;20427;-67
2022/06/28 03:39:08;;;;;;;0.05;0.05;;;;;;;15.99;69.37;100240.53;7368584;19;21476;-66
2022/06/28 03:41:33;;;;;;;0.10;0.10;;;;;;;16.00;69.05;100229.91;7369300;19;20116;-68
2022/06/28 03:43:59;;;;;;;0.00;0.00;;;;;;;16.01;69.05;100236.00;7369292;19;20022;-68
2022/06/28 03:46:24;;;;;;;0.10;0.10;;;;;;;16.02;68.58;100232.47;7369645;19;20397;-67
2022/06/28 03:48:50;;;;;;;0.00;0.00;;;;;;;16.02;68.37;100221.94;7369942;19;20429;-68
2022/06/28 03:51:16;;;;;;;0.00;0.00;;;;;;;16.05;68.24;100217.34;7367569;19;20010;-67
2022/06/28 03:53:42;;;;;;;0.03;0.03;;;;;;;16.07;68.24;100222.53;7369532;19;21334;-67
2022/06/28 03:56:08;;;;;;;0.00;0.00;;;;;;;16.07;68.44;100222.53;7368313;19;20496;-68
2022/06/28 03:58:34;;;;;;;0.08;0.08;;;;;;;16.07;68.36;100219.91;7369005;19;20066;-67
2022/06/28 04:00:59;;;;;;;0.10;0.10;;;;;;;16.07;68.10;100217.28;7367404;19;20554;-67
2022/06/28 04:03:25;;;;;;;0.10;0.10;;;;;;;16.08;68.65;100229.50;7371269;19;19998;-67
2022/06/28 04:05:50;;;;;;;0.00;0.00;;;;;;;15.93;68.60;100196.94;7366129;19;20010;-67
2022/06/28 04:08:16;;;;;;;0.08;0.08;;;;;;;16.03;68.82;100210.47;7369708;19;20011;-68
2022/06/28 04:10:42;;;;;;;0.10;0.10;;;;;;;16.01;68.51;100197.34;7367060;19;20007;-67
2022/06/28 04:13:07;;;;;;;0.10;0.10;;;;;;;16.11;68.39;100210.03;7368291;19;20018;-67
2022/06/28 04:15:33;;;;;;;0.00;0.00;;;;;;;16.11;68.44;100200.34;7366759;19;20504;-67
2022/06/28 04:17:58;;;;;;;0.00;0.00;;;;;;;16.04;68.77;100185.81;7369707;19;20505;-66
2022/06/28 04:20:24;;;;;;;0.00;0.00;;;;;;;16.10;68.88;100188.13;7366969;19;20014;-67
2022/06/28 04:22:50;;;;;;;0.10;0.10;;;;;;;16.10;69.15;100180.22;7364579;19;20010;-67
2022/06/28 04:25:16;;;;;;;0.10;0.10;;;;;;;16.04;68.64;100162.97;7368792;19;20544;-67
2022/06/28 04:27:41;;;;;;;0.00;0.00;;;;;;;16.13;68.37;100177.44;7367250;19;20018;-68
2022/06/28 04:30:07;;;;;;;0.00;0.00;;;;;;;16.13;68.53;100169.53;7366340;19;20557;-68
2022/06/28 04:32:32;;;;;;;0.00;0.00;;;;;;;16.11;68.05;100158.22;7368784;19;20027;-66
2022/06/28 04:34:58;;;;;;;0.00;0.00;;;;;;;16.12;68.01;100170.47;7367797;19;20690;-66
2022/06/28 04:37:23;;;;;;;0.08;0.08;;;;;;;16.14;68.77;100160.69;7366347;19;20014;-66
2022/06/28 04:39:49;;;;;;;0.10;0.10;;;;;;;16.14;68.58;100168.59;7368202;19;20010;-68
2022/06/28 04:42:14;;;;;;;0.00;0.00;;;;;;;16.11;69.42;100160.84;7366704;19;20033;-68
2022/06/28 04:44:41;;;;;;;0.10;0.10;;;;;;;16.06;69.31;100160.25;7365033;19;20745;-66
2022/06/28 04:47:07;;;;;;;0.03;0.03;;;;;;;15.98;69.79;100146.66;7368302;19;20093;-67
2022/06/28 04:49:33;;;;;;;0.10;0.10;;;;;;;15.92;69.48;100136.47;7367064;19;20018;-68
2022/06/28 04:51:58;;;;;;;0.00;0.00;;;;;;;15.86;70.71;100131.50;7366816;19;20473;-67
2022/06/28 04:54:24;;;;;;;0.00;0.00;;;;;;;15.79;70.45;100145.00;7364776;19;20010;-68
2022/06/28 04:56:49;;;;;;;0.10;0.10;;;;;;;15.74;70.73;100136.50;7368842;19;20038;-68
2022/06/28 04:59:14;;;;;;;0.00;0.00;;;;;;;15.70;70.82;100144.63;7366702;19;20383;-67
2022/06/28 05:01:40;;;;;;;0.00;0.00;;;;;;;15.58;70.59;100139.03;7364057;19;20017;-67
2022/06/28 05:04:05;;;;;;;0.00;0.00;;;;;;;15.66;71.10;100133.44;7365710;19;20041;-67
2022/06/28 05:06:31;;;;;;;0.08;0.08;;;;;;;15.64;71.37;100135.28;7367218;19;20022;-68
2022/06/28 05:08:56;;;;;;;0.10;0.10;;;;;;;15.60;71.35;100130.22;7367251;19;20018;-66
2022/06/28 05:11:22;;;;;;;0.00;0.00;;;;;;;15.56;71.92;100126.88;7366860;19;20006;-66
2022/06/28 05:13:47;;;;;;;0.00;0.00;;;;;;;15.40;72.24;100097.91;7368088;19;20053;-66
2022/06/28 05:16:13;;;;;;;0.10;0.10;;;;;;;15.48;72.57;100110.66;7366659;19;20094;-67
2022/06/28 05:18:39;;;;;;;0.10;0.10;;;;;;;15.37;72.10;100099.84;7367184;19;20026;-66
2022/06/28 05:21:04;;;;;;;0.00;0.00;;;;;;;15.44;71.96;100109.97;7364438;19;20002;-68
2022/06/28 05:23:30;;;;;;;0.05;0.05;;;;;;;15.34;72.61;100092.13;7367200;19;20049;-67
2022/06/28 05:25:55;;;;;;;0.00;0.00;;;;;;;15.31;72.69;100078.19;7366342;19;20041;-67
2022/06/28 05:28:21;;;;;;;0.03;0.03;;;;;;;15.39;73.29;100084.84;7367244;19;20461;-68
2022/06/28 05:30:46;;;;;;;0.00;0.00;;;;;;;15.41;73.51;100104.88;7361216;19;20018;-66
2022/06/28 05:33:12;;;;;;;0.00;0.00;;;;;;;15.40;73.01;100097.03;7363527;19;20007;-66
2022/06/28 05:35:37;;;;;;;0.00;0.00;;;;;;;15.37;73.32;100087.56;7365992;19;20014;-65
2022/06/28 05:38:03;;;;;;;0.00;0.00;;;;;;;15.34;73.29;100065.81;7368266;19;20033;-67
2022/06/28 05:40:29;;;;;;;0.00;0.00;;;;;;;15.22;73.65;100052.38;7364849;19;20043;-66
2022/06/28 05:42:54;;;;;;;0.00;0.00;;;;;;;15.31;73.74;100078.19;7367087;19;20678;-66
2022/06/28 05:45:20;;;;;;;0.10;0.10;;;;;;;15.29;74.32;100073.94;7366187;19;20018;-66
2022/06/28 05:47:45;;;;;;;0.00;0.00;;;;;;;15.28;73.61;100070.47;7363789;19;20017;-66
2022/06/28 05:50:11;;;;;;;0.00;0.00;;;;;;;15.27;73.68;100066.13;7364848;19;20014;-66
2022/06/28 05:52:37;;;;;;;0.00;0.00;;;;;;;15.26;73.61;100077.59;7366557;19;20024;-66
2022/06/28 05:55:03;;;;;;;0.00;0.00;;;;;;;15.23;73.64;100069.84;7363435;19;20014;-66
2022/06/28 05:57:28;;;;;;;0.03;0.03;;;;;;;15.15;74.18;100036.97;7364390;19;20011;-66
2022/06/28 05:59:54;;;;;;;0.00;0.00;;;;;;;15.24;75.08;100071.53;7359454;19;20007;-63
2022/06/28 06:02:19;;;;;;;0.10;0.10;;;;;;;15.24;74.37;100054.91;7366269;19;20023;-64
2022/06/28 06:04:45;;;;;;;0.00;0.00;;;;;;;15.23;75.06;100048.81;7364968;19;20007;-65
2022/06/28 06:07:10;;;;;;;0.00;0.00;;;;;;;15.24;75.59;100055.75;7362339;19;20018;-66
2022/06/28 06:09:36;;;;;;;0.00;0.00;;;;;;;15.22;76.27;100047.13;7363042;19;20025;-64
2022/06/28 06:12:03;;;;;;;0.00;0.00;;;;;;;15.24;75.91;100050.50;7366141;19;20719;-65
2022/06/28 06:14:29;;;;;;;0.00;0.00;;;;;;;15.24;75.81;100039.97;7362691;19;20014;-65
2022/06/28 06:16:55;;;;;;;0.00;0.00;;;;;;;15.25;75.89;100046.94;7361996;19;20003;-65
2022/06/28 06:19:20;;;;;;;0.00;0.00;;;;;;;15.25;75.92;100036.41;7361995;19;20073;-65
2022/06/28 06:21:46;;;;;;;0.10;0.10;;;;;;;15.27;75.67;100046.88;7362051;19;21170;-64
2022/06/28 06:24:12;;;;;;;0.00;0.00;;;;;;;15.25;76.60;100030.31;7360369;19;20017;-66
2022/06/28 06:26:37;;;;;;;0.10;0.10;;;;;;;15.28;76.57;100025.75;7362707;19;20014;-65
2022/06/28 06:29:02;;;;;;;0.00;0.00;;;;;;;15.29;76.75;100024.81;7362777;19;20011;-65
2022/06/28 06:31:28;;;;;;;0.00;0.00;;;;;;;15.29;77.22;100026.59;7364789;19;20006;-64
2022/06/28 06:33:54;;;;;;;0.08;0.08;;;;;;;15.31;77.39;100022.97;7364321;19;20019;-65
2022/06/28 06:36:21;;;;;;;0.00;0.00;;;;;;;15.32;77.38;100016.75;7362487;19;20011;-65
2022/06/28 06:38:47;;;;;;;0.00;0.00;;;;;;;15.37;77.09;100023.56;7362915;19;20002;-66
2022/06/28 06:41:12;;;;;;;0.08;0.08;;;;;;;15.39;77.52;100025.16;7364567;19;20785;-65
2022/06/28 06:43:38;;;;;;;0.00;0.00;;;;;;;15.39;77.80;100024.31;7361473;19;20010;-66
2022/06/28 06:46:03;;;;;;;0.10;0.10;;;;;;;15.42;77.45;100021.53;7368497;19;20018;-65
2022/06/28 06:48:28;;;;;;;0.10;0.10;;;;;;;15.44;77.29;100019.66;7369146;19;20795;-65
2022/06/28 06:50:54;;;;;;;0.08;0.08;;;;;;;15.44;77.32;100020.50;7369989;19;20006;-64
2022/06/28 06:53:20;;;;;;;0.00;0.00;;;;;;;15.47;77.51;100019.50;7365967;19;20022;-64
2022/06/28 06:55:47;;;;;;;0.00;0.00;;;;;;;15.51;77.75;100015.75;7370420;19;20070;-66
2022/06/28 06:58:13;;;;;;;0.03;0.03;;;;;;;15.54;77.53;100013.81;7366710;19;20011;-65
2022/06/28 07:00:39;;;;;;;0.00;0.00;;;;;;;15.56;77.00;100013.72;7369575;19;20347;-68
2022/06/28 07:03:05;;;;;;;0.00;0.00;;;;;;;15.57;77.81;100023.34;7370151;19;20966;-65
2022/06/28 07:05:31;;;;;;;0.00;0.00;;;;;;;15.56;77.72;100019.00;7366187;19;21400;-65
2022/06/28 07:07:57;;;;;;;0.00;0.00;;;;;;;15.54;77.44;100040.13;7368350;19;20033;-65
2022/06/28 07:10:22;;;;;;;0.00;0.00;;;;;;;15.57;77.61;100020.72;7367354;19;20002;-66
2022/06/28 07:12:48;;;;;;;0.00;0.00;;;;;;;15.60;77.21;100030.22;7368411;19;20010;-65
2022/06/28 07:15:14;;;;;;;0.10;0.10;;;;;;;15.59;77.93;100024.09;7367181;19;20078;-65
2022/06/28 07:17:39;;;;;;;0.10;0.10;;;;;;;15.61;77.25;100019.59;7364249;19;20019;-65
2022/06/28 07:20:05;;;;;;;0.10;0.10;;;;;;;15.61;77.73;100016.97;7366918;19;20014;-64
2022/06/28 07:22:31;;;;;;;0.00;0.00;;;;;;;15.60;77.76;100010.00;7368630;19;20363;-66
2022/06/28 07:24:56;;;;;;;0.00;0.00;;;;;;;15.60;78.24;100010.00;7370570;19;20014;-65
2022/06/28 07:27:22;;;;;;;0.00;0.00;;;;;;;15.61;78.04;100003.78;7370044;19;20017;-65
2022/06/28 07:29:48;;;;;;;0.00;0.00;;;;;;;15.62;77.63;100013.41;7367710;19;20845;-65
2022/06/28 07:32:14;;;;;;;0.00;0.00;;;;;;;15.62;78.37;100010.78;7366889;19;20078;-65
2022/06/28 07:34:40;;;;;;;0.10;0.10;;;;;;;15.64;77.95;100026.50;7370246;19;26221;-64
2022/06/28 07:37:05;;;;;;;0.10;0.10;;;;;;;15.63;78.12;100003.72;7364815;19;20002;-64
2022/06/28 07:39:31;;;;;;;0.10;0.10;;;;;;;15.63;78.57;99998.47;7369616;19;21351;-66
2022/06/28 07:41:56;;;;;;;0.00;0.00;;;;;;;15.63;78.48;99998.47;7360222;19;20018;-65
2022/06/28 07:44:21;;;;;;;0.08;0.08;;;;;;;15.62;78.75;99992.34;7369390;19;20011;-66
2022/06/28 07:46:47;;;;;;;0.00;0.00;;;;;;;15.62;79.13;99992.34;7364070;19;20018;-65
2022/06/28 07:49:12;;;;;;;0.00;0.00;;;;;;;15.63;78.82;99986.19;7367518;19;20018;-66
2022/06/28 07:54:22;;;;;;;0.10;0.10;;;;;;;15.56;78.84;99971.63;7370521;19;20021;-66
2022/06/28 07:56:47;;;;;;;0.00;0.00;;;;;;;15.68;78.13;99980.69;7365726;19;20470;-66
2022/06/28 07:59:13;;;;;;;0.00;0.00;;;;;;;15.69;78.68;99991.09;7366519;19;20846;-66
2022/06/28 08:01:38;;;;;;;0.03;0.03;;;;;;;15.70;78.89;99978.78;7369095;19;20035;-65
2022/06/28 08:04:04;;;;;;;0.10;0.10;;;;;;;15.68;79.10;99981.53;7368094;19;20086;-64
2022/06/28 08:06:29;;;;;;;0.10;0.10;;;;;;;15.65;79.23;99976.41;7367435;19;20018;-65
2022/06/28 08:08:55;;;;;;;0.00;0.00;;;;;;;15.70;79.19;99984.91;7368006;19;20018;-64
2022/06/28 08:11:20;;;;;;;0.10;0.10;;;;;;;15.71;79.01;99991.88;7366684;19;20033;-64
2022/06/28 08:13:50;;;;;;;0.10;0.10;;;;;;;15.70;79.05;99977.00;7367919;19;20035;-65
2022/06/28 08:16:15;;;;;;;0.10;0.10;;;;;;;15.61;79.02;99961.69;7368938;19;20014;-66
2022/06/28 08:18:42;;;;;;;0.10;0.10;;;;;;;15.72;79.56;99971.69;7369507;19;20633;-65
2022/06/28 08:21:08;;;;;;;0.10;0.10;;;;;;;15.73;79.04;99966.31;7365046;19;20102;-65
2022/06/28 08:23:34;;;;;;;0.05;0.05;;;;;;;15.73;79.12;99971.59;7367613;19;20051;-64
2022/06/28 08:25:59;;;;;;;0.08;0.08;;;;;;;15.75;79.04;99966.22;7365613;19;20006;-66
2022/06/28 08:28:25;;;;;;;0.00;0.00;;;;;;;15.72;79.17;99959.38;7369399;19;20492;-65
2022/06/28 08:30:51;;;;;;;0.10;0.10;;;;;;;15.76;79.53;99963.53;7365964;19;20015;-66
2022/06/28 08:33:17;;;;;;;0.10;0.10;;;;;;;15.76;79.63;99958.25;7369012;19;20014;-65
2022/06/28 08:35:42;;;;;;;0.10;0.10;;;;;;;15.77;80.04;99959.97;7364459;19;20037;-66
2022/06/28 08:38:08;;;;;;;0.03;0.03;;;;;;;15.71;79.81;99939.25;7368988;19;20084;-66
2022/06/28 08:40:34;;;;;;;0.00;0.00;;;;;;;15.81;79.46;99950.97;7366016;19;20027;-66
2022/06/28 08:43:00;;;;;;;0.00;0.00;;;;;;;15.85;79.47;99945.50;7368327;19;20599;-65
2022/06/28 08:45:27;;;;;;;0.00;0.00;;;;;;;15.86;79.72;99952.47;7364586;19;20033;-65
2022/06/28 08:47:55;;;;;;;0.10;0.10;;;;;;;15.90;79.91;99941.66;7367494;19;20023;-65
2022/06/28 08:50:37;;;;;;;0.10;0.10;;;;;;;15.83;79.12;99912.22;7365678;19;20015;-65
2022/06/28 08:53:08;;;;;;;0.08;0.08;;;;;;;15.97;79.48;99929.03;7367008;19;20006;-64
2022/06/28 08:55:35;;;;;;;0.00;0.00;;;;;;;16.01;79.70;99922.63;7364686;19;20014;-65
2022/06/28 08:58:04;;;;;;;0.00;0.00;;;;;;;16.05;79.90;99916.25;7366113;19;20015;-64
2022/06/28 09:00:30;;;;;;;0.00;0.00;;;;;;;16.00;80.12;99907.75;7365134;19;20671;-65
2022/06/28 09:02:57;;;;;;;0.10;0.10;;;;;;;16.14;79.74;99913.09;7367490;19;20002;-64
2022/06/28 09:05:25;;;;;;;0.00;0.00;;;;;;;16.21;79.65;99909.13;7364576;19;20144;-65
2022/06/28 09:07:54;;;;;;;0.03;0.03;;;;;;;16.27;79.81;99906.16;7367853;19;20078;-64
2022/06/28 09:10:20;;;;;;;0.03;0.03;;;;;;;16.32;79.77;99913.78;7364553;19;20006;-65
2022/06/28 09:12:55;;;;;;;0.00;0.00;;;;;;;16.39;79.89;99903.75;7363803;19;21157;-64
2022/06/28 09:15:25;;;;;;;0.08;0.08;;;;;;;16.49;79.56;99903.09;7366772;19;20041;-65
2022/06/28 09:17:54;;;;;;;0.00;0.00;;;;;;;16.56;79.53;99903.56;7366148;19;20469;-65
2022/06/28 09:20:19;;;;;;;0.00;0.00;;;;;;;16.60;79.06;99913.00;7366016;19;20022;-63
2022/06/28 09:22:45;;;;;;;0.00;0.00;;;;;;;16.64;79.58;99898.69;7361556;19;20021;-65
2022/06/28 09:25:23;;;;;;;0.10;0.10;;;;;;;16.66;79.09;99894.16;7365392;19;20018;-63
2022/06/28 09:27:48;;;;;;;0.10;0.10;;;;;;;16.70;79.48;99893.03;7364611;19;20006;-65
2022/06/28 09:30:13;;;;;;;0.00;0.00;;;;;;;16.75;79.03;99896.28;7366719;19;20017;-64
2022/06/28 09:32:39;;;;;;;0.00;0.00;;;;;;;16.76;79.14;99895.34;7365697;19;20018;-64
2022/06/28 09:35:10;;;;;;;0.10;0.10;;;;;;;16.80;78.39;99888.94;7366463;19;20010;-65
2022/06/28 09:37:53;;;;;;;0.00;0.00;;;;;;;16.80;79.02;99878.38;7365643;19;20014;-66
2022/06/28 09:40:22;;;;;;;0.08;0.08;;;;;;;16.78;78.61;99879.44;7366122;19;20018;-65
2022/06/28 09:43:03;;;;;;;0.10;0.10;;;;;;;16.79;78.14;99887.25;7363951;19;20073;-65
2022/06/28 09:45:29;;;;;;;0.00;0.00;;;;;;;16.75;78.52;99892.81;7362852;19;20007;-65
2022/06/28 09:47:55;;;;;;;0.10;0.10;;;;;;;16.74;79.05;99873.50;7366437;19;20022;-64
2022/06/28 09:50:23;;;;;;;0.00;0.00;;;;;;;16.76;78.93;99876.03;7364525;19;20023;-65
2022/06/28 09:52:50;;;;;;;0.10;0.10;;;;;;;16.78;79.02;99875.00;7366362;19;20010;-65
2022/06/28 09:55:16;;;;;;;0.00;0.00;;;;;;;16.78;79.21;99880.28;7366293;19;20010;-65
2022/06/28 09:57:45;;;;;;;0.10;0.10;;;;;;;16.79;79.24;99870.59;7361301;19;20010;-65
2022/06/28 10:00:14;;;;;;;0.00;0.00;;;;;;;16.80;79.63;99878.38;7362080;19;20466;-64
2022/06/28 10:02:42;;;;;;;0.05;0.05;;;;;;;16.84;79.65;99858.81;7366537;19;20091;-65
2022/06/28 10:05:08;;;;;;;0.00;0.00;;;;;;;16.90;79.66;99872.56;7365330;19;20014;-64
2022/06/28 10:07:34;;;;;;;0.10;0.10;;;;;;;16.88;80.07;99846.28;7363158;19;20033;-63
2022/06/28 10:10:01;;;;;;;0.00;0.00;;;;;;;17.06;79.82;99846.91;7364583;19;20010;-65
2022/06/28 10:15:21;;;;;;;0.10;0.10;;;;;;;17.22;79.19;99876.66;7363408;19;20492;-66
2022/06/28 10:18:09;;;;;;;0.10;0.10;;;;;;;17.26;78.33;99869.41;7362950;19;20014;-66
2022/06/28 10:20:37;;;;;;;0.03;0.03;;;;;;;17.16;79.06;99850.66;7352218;19;20041;-66
2022/06/28 10:23:24;;;;;;;0.10;0.10;;;;;;;17.25;78.33;99871.19;7364025;19;20015;-65
2022/06/28 10:26:13;;;;;;;0.00;0.00;;;;;;;17.23;78.66;99869.56;7363464;19;20111;-66
2022/06/28 10:29:01;;;;;;;0.10;0.10;;;;;;;17.18;79.65;99872.50;7366406;19;20013;-67
2022/06/28 10:31:28;;;;;;;0.00;0.00;;;;;;;17.16;79.38;99871.75;7364220;19;20006;-67
2022/06/28 10:33:58;;;;;;;0.00;0.00;;;;;;;17.18;79.82;99883.06;7364531;19;20037;-66
2022/06/28 10:36:31;;;;;;;0.00;0.00;;;;;;;17.17;79.47;99875.25;7363684;19;20731;-65
2022/06/28 10:39:08;;;;;;;0.10;0.10;;;;;;;17.19;79.30;99876.00;7363960;19;20026;-66
2022/06/28 10:41:42;;;;;;;;;;;;;;;17.21;78.52;99887.31;7361491;19;20006;-66
2022/06/28 10:44:12;;;;;;;0.10;0.10;;;;;;;17.19;79.88;99879.50;7363167;19;19929;-66
2022/06/28 10:46:39;;;;;;;0.10;0.10;;;;;;;17.17;80.26;99878.72;7365721;19;20056;-66
2022/06/28 10:49:07;;;;;;;0.00;0.00;;;;;;;17.20;80.01;99894.38;7358488;19;20094;-66
2022/06/28 10:51:33;;;;;;;0.10;0.10;;;;;;;17.21;80.37;99874.97;7363594;19;20026;-65
2022/06/28 10:54:08;;;;;;;0.00;0.00;;;;;;;17.25;79.70;99858.00;7363757;19;20074;-65
2022/06/28 10:56:42;;;;;;;0.00;0.00;;;;;;;17.23;79.87;99857.22;7363633;19;20011;-65
2022/06/28 10:59:10;;;;;;;0.00;0.00;;;;;;;17.22;79.47;99862.59;7361432;19;20018;-64
2022/06/28 11:01:38;;;;;;;0.00;0.00;;;;;;;17.19;79.10;99873.38;7363294;19;20090;-64
2022/06/28 11:04:11;;;;;;;0.00;0.00;;;;;;;17.13;79.09;99869.31;7365585;19;20014;-65
2022/06/28 11:06:44;;;;;;;0.10;0.10;;;;;;;17.08;78.85;99863.47;7362660;19;20014;-67
2022/06/28 11:09:25;;;;;;;0.05;0.05;;;;;;;16.99;78.83;99864.06;7364062;19;20011;-69
2022/06/28 11:12:06;;;;;;;0.10;0.10;;;;;;;16.90;78.79;99859.38;7363930;19;20033;-67
2022/06/28 11:14:55;;;;;;;0.10;0.10;;;;;;;16.79;79.64;99871.44;7364623;19;20422;-66
2022/06/28 11:17:26;;;;;;;0.10;0.10;;;;;;;16.70;79.99;99871.09;7363077;19;20024;-66
2022/06/28 11:19:54;;;;;;;0.10;0.10;;;;;;;16.63;80.09;99860.09;7360664;19;20014;-67
2022/06/28 11:22:25;;;;;;;0.10;0.10;;;;;;;16.64;79.78;99853.88;7362829;19;20014;-67
2022/06/28 11:24:51;;;;;;;0.00;0.00;;;;;;;16.53;80.25;99838.72;7361662;19;20126;-67
2022/06/28 11:27:20;;;;;;;0.10;0.10;;;;;;;16.61;80.74;99846.16;7364078;19;20077;-66
2022/06/28 11:29:46;;;;;;;0.10;0.10;;;;;;;16.70;81.10;99850.03;7359659;19;20423;-66
2022/06/28 11:32:16;;;;;;;0.00;0.00;;;;;;;16.79;81.15;99836.31;7365324;19;20635;-66
2022/06/28 11:34:42;;;;;;;0.00;0.00;;;;;;;16.84;81.98;99842.13;7369407;19;21918;-67
2022/06/28 11:37:08;;;;;;;0.00;0.00;;;;;;;16.94;82.03;99826.59;7369815;19;20030;-66
2022/06/28 11:39:33;;;;;;;0.10;0.10;;;;;;;17.06;81.75;99831.09;7368678;19;20022;-65